sensor_id;sensor_type;location;lat;lon;timestamp;temperature;humidity
21787;DHT22;11055;50.870;4.316;2023-04-19T00:00:37;11.00;99.90
21787;DHT22;11055;50.870;4.316;2023-04-19T00:03:05;11.00;99.90
21787;DHT22;11055;50.870;4.316;2023-04-19T00:05:31;11.00;99.90
21787;DHT22;11055;50.870;4.316;2023-04-19T00:07:57;11.00;99.90
21787;DHT22;11055;50.870;4.316;2023-04-19T00:10:23;11.00;99.90
21787;DHT22;11055;50.870;4.316;2023-04-19T00:12:49;11.00;99.90
21787;DHT22;11055;50.870;4.316;2023-04-19T00:15:15;11.00;99.90
21787;DHT22;11055;50.870;4.316;2023-04-19T00:17:40;11.00;99.90
21787;DHT22;11055;50.870;4.316;2023-04-19T00:20:07;11.00;99.90
21787;DHT22;11055;50.870;4.316;2023-04-19T00:22:33;11.10;99.90
21787;DHT22;11055;50.870;4.316;2023-04-19T00:24:59;11.00;99.90
21787;DHT22;11055;50.870;4.316;2023-04-19T00:27:25;11.00;99.90
21787;DHT22;11055;50.870;4.316;2023-04-19T00:29:51;11.00;99.90
21787;DHT22;11055;50.870;4.316;2023-04-19T00:32:16;10.90;99.90
21787;DHT22;11055;50.870;4.316;2023-04-19T00:34:42;10.90;99.90
21787;DHT22;11055;50.870;4.316;2023-04-19T00:37:08;10.80;99.90
21787;DHT22;11055;50.870;4.316;2023-04-19T00:39:35;10.80;99.90
21787;DHT22;11055;50.870;4.316;2023-04-19T00:42:01;10.70;99.90
21787;DHT22;11055;50.870;4.316;2023-04-19T00:44:27;10.70;99.90
21787;DHT22;11055;50.870;4.316;2023-04-19T00:46:54;10.70;99.90
21787;DHT22;11055;50.870;4.316;2023-04-19T00:49:22;10.70;99.90
21787;DHT22;11055;50.870;4.316;2023-04-19T00:51:51;10.80;99.90
21787;DHT22;11055;50.870;4.316;2023-04-19T00:54:18;10.70;99.90
21787;DHT22;11055;50.870;4.316;2023-04-19T00:56:44;10.60;99.90
21787;DHT22;11055;50.870;4.316;2023-04-19T00:59:11;10.60;99.90
21787;DHT22;11055;50.870;4.316;2023-04-19T01:01:37;10.60;99.90
21787;DHT22;11055;50.870;4.316;2023-04-19T01:04:06;10.60;99.90
21787;DHT22;11055;50.870;4.316;2023-04-19T01:06:33;10.60;99.90
21787;DHT22;11055;50.870;4.316;2023-04-19T01:08:59;10.60;99.90
21787;DHT22;11055;50.870;4.316;2023-04-19T01:11:25;10.70;99.90
21787;DHT22;11055;50.870;4.316;2023-04-19T01:13:51;10.60;99.90
21787;DHT22;11055;50.870;4.316;2023-04-19T01:16:17;10.60;99.90
21787;DHT22;11055;50.870;4.316;2023-04-19T01:18:43;10.60;99.90
21787;DHT22;11055;50.870;4.316;2023-04-19T01:21:09;10.60;99.90
21787;DHT22;11055;50.870;4.316;2023-04-19T01:23:35;10.60;99.90
21787;DHT22;11055;50.870;4.316;2023-04-19T01:26:04;10.60;99.90
21787;DHT22;11055;50.870;4.316;2023-04-19T01:28:30;10.50;99.90
21787;DHT22;11055;50.870;4.316;2023-04-19T01:30:55;10.50;99.90
21787;DHT22;11055;50.870;4.316;2023-04-19T01:33:21;10.50;99.90
21787;DHT22;11055;50.870;4.316;2023-04-19T01:35:47;10.40;99.90
21787;DHT22;11055;50.870;4.316;2023-04-19T01:38:14;10.40;99.90
21787;DHT22;11055;50.870;4.316;2023-04-19T01:40:39;10.40;99.90
21787;DHT22;11055;50.870;4.316;2023-04-19T01:43:06;10.20;99.90
21787;DHT22;11055;50.870;4.316;2023-04-19T01:45:32;10.10;99.90
21787;DHT22;11055;50.870;4.316;2023-04-19T01:47:59;10.10;99.90
21787;DHT22;11055;50.870;4.316;2023-04-19T01:50:27;10.20;99.90
21787;DHT22;11055;50.870;4.316;2023-04-19T01:52:53;10.20;99.90
21787;DHT22;11055;50.870;4.316;2023-04-19T01:55:18;10.20;99.90
21787;DHT22;11055;50.870;4.316;2023-04-19T01:57:44;10.20;99.90
21787;DHT22;11055;50.870;4.316;2023-04-19T02:00:10;10.20;99.90
21787;DHT22;11055;50.870;4.316;2023-04-19T02:02:36;10.20;99.90
21787;DHT22;11055;50.870;4.316;2023-04-19T02:05:04;10.20;99.90
21787;DHT22;11055;50.870;4.316;2023-04-19T02:07:30;10.20;99.90
21787;DHT22;11055;50.870;4.316;2023-04-19T02:09:55;10.20;99.90
21787;DHT22;11055;50.870;4.316;2023-04-19T02:12:25;10.30;99.90
21787;DHT22;11055;50.870;4.316;2023-04-19T02:14:53;10.30;99.90
21787;DHT22;11055;50.870;4.316;2023-04-19T02:17:22;10.30;99.90
21787;DHT22;11055;50.870;4.316;2023-04-19T02:19:47;10.30;99.90
21787;DHT22;11055;50.870;4.316;2023-04-19T02:22:13;10.30;99.90
21787;DHT22;11055;50.870;4.316;2023-04-19T02:24:39;10.40;99.90
21787;DHT22;11055;50.870;4.316;2023-04-19T02:27:05;10.50;99.90
21787;DHT22;11055;50.870;4.316;2023-04-19T02:29:31;10.50;99.90
21787;DHT22;11055;50.870;4.316;2023-04-19T02:31:57;10.60;99.90
21787;DHT22;11055;50.870;4.316;2023-04-19T02:34:23;10.60;99.90
21787;DHT22;11055;50.870;4.316;2023-04-19T02:36:48;10.60;99.90
21787;DHT22;11055;50.870;4.316;2023-04-19T02:39:14;10.50;99.90
21787;DHT22;11055;50.870;4.316;2023-04-19T02:41:41;10.50;99.90
21787;DHT22;11055;50.870;4.316;2023-04-19T02:44:07;10.60;99.90
21787;DHT22;11055;50.870;4.316;2023-04-19T02:46:33;10.60;99.90
21787;DHT22;11055;50.870;4.316;2023-04-19T02:49:01;10.70;99.90
21787;DHT22;11055;50.870;4.316;2023-04-19T02:51:27;10.70;99.90
21787;DHT22;11055;50.870;4.316;2023-04-19T02:53:53;10.80;99.90
21787;DHT22;11055;50.870;4.316;2023-04-19T02:56:19;10.80;99.90
21787;DHT22;11055;50.870;4.316;2023-04-19T02:58:45;10.80;99.90
21787;DHT22;11055;50.870;4.316;2023-04-19T03:01:11;10.80;99.90
21787;DHT22;11055;50.870;4.316;2023-04-19T03:03:36;10.70;99.90
21787;DHT22;11055;50.870;4.316;2023-04-19T03:06:02;10.70;99.90
21787;DHT22;11055;50.870;4.316;2023-04-19T03:08:28;10.80;99.90
21787;DHT22;11055;50.870;4.316;2023-04-19T03:10:54;10.80;99.90
21787;DHT22;11055;50.870;4.316;2023-04-19T03:13:19;10.80;99.90
21787;DHT22;11055;50.870;4.316;2023-04-19T03:15:46;10.80;99.90
21787;DHT22;11055;50.870;4.316;2023-04-19T03:18:12;10.90;99.90
21787;DHT22;11055;50.870;4.316;2023-04-19T03:20:38;10.90;99.90
21787;DHT22;11055;50.870;4.316;2023-04-19T03:23:03;10.90;99.90
21787;DHT22;11055;50.870;4.316;2023-04-19T03:25:29;11.00;99.90
21787;DHT22;11055;50.870;4.316;2023-04-19T03:27:55;10.90;99.90
21787;DHT22;11055;50.870;4.316;2023-04-19T03:30:21;11.00;99.90
21787;DHT22;11055;50.870;4.316;2023-04-19T03:32:47;11.00;99.90
21787;DHT22;11055;50.870;4.316;2023-04-19T03:35:12;11.00;99.90
21787;DHT22;11055;50.870;4.316;2023-04-19T03:37:38;11.10;99.90
21787;DHT22;11055;50.870;4.316;2023-04-19T03:40:04;11.20;99.90
21787;DHT22;11055;50.870;4.316;2023-04-19T03:42:31;11.10;99.90
21787;DHT22;11055;50.870;4.316;2023-04-19T03:44:57;11.00;99.90
21787;DHT22;11055;50.870;4.316;2023-04-19T03:47:23;11.00;99.90
21787;DHT22;11055;50.870;4.316;2023-04-19T03:49:48;11.00;99.90
21787;DHT22;11055;50.870;4.316;2023-04-19T03:52:14;10.90;99.90
21787;DHT22;11055;50.870;4.316;2023-04-19T03:54:40;10.80;99.90
21787;DHT22;11055;50.870;4.316;2023-04-19T03:57:05;10.70;99.90
21787;DHT22;11055;50.870;4.316;2023-04-19T03:59:31;10.70;99.90
21787;DHT22;11055;50.870;4.316;2023-04-19T04:01:56;10.80;99.90
21787;DHT22;11055;50.870;4.316;2023-04-19T04:04:22;10.80;99.90
21787;DHT22;11055;50.870;4.316;2023-04-19T04:06:48;10.80;99.90
21787;DHT22;11055;50.870;4.316;2023-04-19T04:09:13;10.70;99.90
21787;DHT22;11055;50.870;4.316;2023-04-19T04:11:39;10.70;99.90
21787;DHT22;11055;50.870;4.316;2023-04-19T04:14:06;10.70;99.90
21787;DHT22;11055;50.870;4.316;2023-04-19T04:16:31;10.70;99.90
21787;DHT22;11055;50.870;4.316;2023-04-19T04:18:57;10.70;99.90
21787;DHT22;11055;50.870;4.316;2023-04-19T04:21:22;10.60;99.90
21787;DHT22;11055;50.870;4.316;2023-04-19T04:23:49;10.60;99.90
21787;DHT22;11055;50.870;4.316;2023-04-19T04:26:14;10.70;99.90
21787;DHT22;11055;50.870;4.316;2023-04-19T04:28:40;10.70;99.90
21787;DHT22;11055;50.870;4.316;2023-04-19T04:31:06;10.70;99.90
21787;DHT22;11055;50.870;4.316;2023-04-19T04:33:32;10.70;99.90
21787;DHT22;11055;50.870;4.316;2023-04-19T04:35:58;10.60;99.90
21787;DHT22;11055;50.870;4.316;2023-04-19T04:38:24;10.60;99.90
21787;DHT22;11055;50.870;4.316;2023-04-19T04:40:54;10.60;99.90
21787;DHT22;11055;50.870;4.316;2023-04-19T04:43:21;10.60;99.90
21787;DHT22;11055;50.870;4.316;2023-04-19T04:45:47;10.60;99.90
21787;DHT22;11055;50.870;4.316;2023-04-19T04:48:13;10.50;99.90
21787;DHT22;11055;50.870;4.316;2023-04-19T04:50:39;10.50;99.90
21787;DHT22;11055;50.870;4.316;2023-04-19T04:53:05;10.50;99.90
21787;DHT22;11055;50.870;4.316;2023-04-19T04:55:31;10.50;99.90
21787;DHT22;11055;50.870;4.316;2023-04-19T04:57:57;10.50;99.90
21787;DHT22;11055;50.870;4.316;2023-04-19T05:00:23;10.40;99.90
21787;DHT22;11055;50.870;4.316;2023-04-19T05:02:48;10.40;99.90
21787;DHT22;11055;50.870;4.316;2023-04-19T05:05:14;10.40;99.90
21787;DHT22;11055;50.870;4.316;2023-04-19T05:07:40;10.40;99.90
21787;DHT22;11055;50.870;4.316;2023-04-19T05:10:06;10.40;99.90
21787;DHT22;11055;50.870;4.316;2023-04-19T05:12:32;10.40;99.90
21787;DHT22;11055;50.870;4.316;2023-04-19T05:14:58;10.50;99.90
21787;DHT22;11055;50.870;4.316;2023-04-19T05:17:24;10.50;99.90
21787;DHT22;11055;50.870;4.316;2023-04-19T05:19:49;10.50;99.90
21787;DHT22;11055;50.870;4.316;2023-04-19T05:22:15;10.50;99.90
21787;DHT22;11055;50.870;4.316;2023-04-19T05:24:41;10.40;99.90
21787;DHT22;11055;50.870;4.316;2023-04-19T05:27:07;10.40;99.90
21787;DHT22;11055;50.870;4.316;2023-04-19T05:29:33;10.50;99.90
21787;DHT22;11055;50.870;4.316;2023-04-19T05:31:59;10.50;99.90
21787;DHT22;11055;50.870;4.316;2023-04-19T05:34:25;10.50;99.90
21787;DHT22;11055;50.870;4.316;2023-04-19T05:36:51;10.50;99.90
21787;DHT22;11055;50.870;4.316;2023-04-19T05:39:17;10.50;99.90
21787;DHT22;11055;50.870;4.316;2023-04-19T05:41:48;10.60;99.90
21787;DHT22;11055;50.870;4.316;2023-04-19T05:44:14;10.50;99.90
21787;DHT22;11055;50.870;4.316;2023-04-19T05:46:40;10.50;99.90
21787;DHT22;11055;50.870;4.316;2023-04-19T05:49:06;10.50;99.90
21787;DHT22;11055;50.870;4.316;2023-04-19T05:51:32;10.60;99.90
21787;DHT22;11055;50.870;4.316;2023-04-19T05:53:59;10.60;99.90
21787;DHT22;11055;50.870;4.316;2023-04-19T05:56:25;10.60;99.90
21787;DHT22;11055;50.870;4.316;2023-04-19T05:58:51;10.70;99.90
21787;DHT22;11055;50.870;4.316;2023-04-19T06:01:17;10.70;99.90
21787;DHT22;11055;50.870;4.316;2023-04-19T06:03:43;10.60;99.90
21787;DHT22;11055;50.870;4.316;2023-04-19T06:06:09;10.60;99.90
21787;DHT22;11055;50.870;4.316;2023-04-19T06:08:35;10.70;99.90
21787;DHT22;11055;50.870;4.316;2023-04-19T06:11:01;10.80;99.90
21787;DHT22;11055;50.870;4.316;2023-04-19T06:13:27;10.80;99.90
21787;DHT22;11055;50.870;4.316;2023-04-19T06:15:56;10.90;99.90
21787;DHT22;11055;50.870;4.316;2023-04-19T06:18:22;11.00;99.90
21787;DHT22;11055;50.870;4.316;2023-04-19T06:20:48;11.00;99.90
21787;DHT22;11055;50.870;4.316;2023-04-19T06:23:14;11.00;99.90
21787;DHT22;11055;50.870;4.316;2023-04-19T06:25:42;11.00;99.90
21787;DHT22;11055;50.870;4.316;2023-04-19T06:28:08;11.10;99.90
21787;DHT22;11055;50.870;4.316;2023-04-19T06:30:35;11.30;99.90
21787;DHT22;11055;50.870;4.316;2023-04-19T06:33:01;11.40;99.90
21787;DHT22;11055;50.870;4.316;2023-04-19T06:35:27;11.50;99.90
21787;DHT22;11055;50.870;4.316;2023-04-19T06:37:52;11.60;99.90
21787;DHT22;11055;50.870;4.316;2023-04-19T06:40:18;11.70;99.90
21787;DHT22;11055;50.870;4.316;2023-04-19T06:42:44;11.60;99.90
21787;DHT22;11055;50.870;4.316;2023-04-19T06:45:10;11.60;99.90
21787;DHT22;11055;50.870;4.316;2023-04-19T06:47:36;11.60;99.90
21787;DHT22;11055;50.870;4.316;2023-04-19T06:50:01;11.80;99.90
21787;DHT22;11055;50.870;4.316;2023-04-19T06:52:28;11.80;99.90
21787;DHT22;11055;50.870;4.316;2023-04-19T06:54:53;11.90;99.90
21787;DHT22;11055;50.870;4.316;2023-04-19T06:57:19;11.90;99.90
21787;DHT22;11055;50.870;4.316;2023-04-19T06:59:45;12.00;99.90
21787;DHT22;11055;50.870;4.316;2023-04-19T07:02:10;12.10;99.90
21787;DHT22;11055;50.870;4.316;2023-04-19T07:04:36;12.10;99.90
21787;DHT22;11055;50.870;4.316;2023-04-19T07:07:02;12.10;99.90
21787;DHT22;11055;50.870;4.316;2023-04-19T07:09:28;12.20;99.90
21787;DHT22;11055;50.870;4.316;2023-04-19T07:11:54;12.30;99.90
21787;DHT22;11055;50.870;4.316;2023-04-19T07:14:20;12.30;99.90
21787;DHT22;11055;50.870;4.316;2023-04-19T07:16:46;12.30;99.90
21787;DHT22;11055;50.870;4.316;2023-04-19T07:19:12;12.40;99.90
21787;DHT22;11055;50.870;4.316;2023-04-19T07:21:38;12.60;99.90
21787;DHT22;11055;50.870;4.316;2023-04-19T07:24:07;12.80;99.90
21787;DHT22;11055;50.870;4.316;2023-04-19T07:26:33;12.90;99.90
21787;DHT22;11055;50.870;4.316;2023-04-19T07:28:59;12.90;99.90
21787;DHT22;11055;50.870;4.316;2023-04-19T07:31:26;13.10;99.90
21787;DHT22;11055;50.870;4.316;2023-04-19T07:33:52;13.40;99.90
21787;DHT22;11055;50.870;4.316;2023-04-19T07:36:18;13.50;99.90
21787;DHT22;11055;50.870;4.316;2023-04-19T07:38:44;13.90;99.90
21787;DHT22;11055;50.870;4.316;2023-04-19T07:41:09;14.20;99.90
21787;DHT22;11055;50.870;4.316;2023-04-19T07:43:36;14.40;99.90
21787;DHT22;11055;50.870;4.316;2023-04-19T07:46:07;14.30;99.90
21787;DHT22;11055;50.870;4.316;2023-04-19T07:48:33;14.60;99.90
21787;DHT22;11055;50.870;4.316;2023-04-19T07:51:13;15.10;99.90
21787;DHT22;11055;50.870;4.316;2023-04-19T07:53:39;15.70;99.90
21787;DHT22;11055;50.870;4.316;2023-04-19T07:56:07;16.20;99.90
21787;DHT22;11055;50.870;4.316;2023-04-19T07:58:34;16.40;99.90
21787;DHT22;11055;50.870;4.316;2023-04-19T08:01:00;16.40;99.90
21787;DHT22;11055;50.870;4.316;2023-04-19T08:03:26;16.40;99.90
21787;DHT22;11055;50.870;4.316;2023-04-19T08:05:52;16.80;99.90
21787;DHT22;11055;50.870;4.316;2023-04-19T08:08:17;17.20;99.90
21787;DHT22;11055;50.870;4.316;2023-04-19T08:10:43;17.80;99.90
21787;DHT22;11055;50.870;4.316;2023-04-19T08:13:10;18.20;99.90
21787;DHT22;11055;50.870;4.316;2023-04-19T08:15:36;17.80;99.90
21787;DHT22;11055;50.870;4.316;2023-04-19T08:18:01;17.40;99.90
21787;DHT22;11055;50.870;4.316;2023-04-19T08:20:29;17.10;99.90
21787;DHT22;11055;50.870;4.316;2023-04-19T08:22:56;16.60;99.90
21787;DHT22;11055;50.870;4.316;2023-04-19T08:25:22;16.40;99.90
21787;DHT22;11055;50.870;4.316;2023-04-19T08:27:53;15.90;99.90
21787;DHT22;11055;50.870;4.316;2023-04-19T08:30:19;15.60;99.90
21787;DHT22;11055;50.870;4.316;2023-04-19T08:32:45;15.50;99.90
21787;DHT22;11055;50.870;4.316;2023-04-19T08:35:13;15.40;99.90
21787;DHT22;11055;50.870;4.316;2023-04-19T08:37:38;15.50;99.90
21787;DHT22;11055;50.870;4.316;2023-04-19T08:40:04;15.40;99.90
21787;DHT22;11055;50.870;4.316;2023-04-19T08:42:31;15.60;99.90
21787;DHT22;11055;50.870;4.316;2023-04-19T08:45:00;15.60;99.90
21787;DHT22;11055;50.870;4.316;2023-04-19T08:47:34;15.70;99.90
21787;DHT22;11055;50.870;4.316;2023-04-19T08:50:01;15.70;99.90
21787;DHT22;11055;50.870;4.316;2023-04-19T08:52:27;15.70;99.90
21787;DHT22;11055;50.870;4.316;2023-04-19T08:54:56;15.60;99.90
21787;DHT22;11055;50.870;4.316;2023-04-19T08:57:22;15.50;99.90
21787;DHT22;11055;50.870;4.316;2023-04-19T08:59:48;15.60;99.90
21787;DHT22;11055;50.870;4.316;2023-04-19T09:02:20;15.60;99.90
21787;DHT22;11055;50.870;4.316;2023-04-19T09:04:46;15.30;99.90
21787;DHT22;11055;50.870;4.316;2023-04-19T09:07:25;15.30;99.90
21787;DHT22;11055;50.870;4.316;2023-04-19T09:10:11;15.40;99.90
21787;DHT22;11055;50.870;4.316;2023-04-19T09:12:37;15.60;99.90
21787;DHT22;11055;50.870;4.316;2023-04-19T09:15:05;15.60;99.90
21787;DHT22;11055;50.870;4.316;2023-04-19T09:17:34;15.70;99.90
21787;DHT22;11055;50.870;4.316;2023-04-19T09:20:01;15.60;99.90
21787;DHT22;11055;50.870;4.316;2023-04-19T09:22:29;15.70;99.90
21787;DHT22;11055;50.870;4.316;2023-04-19T09:24:54;15.80;99.90
21787;DHT22;11055;50.870;4.316;2023-04-19T09:27:32;15.90;99.90
21787;DHT22;11055;50.870;4.316;2023-04-19T09:30:00;16.10;99.90
21787;DHT22;11055;50.870;4.316;2023-04-19T09:32:27;16.10;99.90
21787;DHT22;11055;50.870;4.316;2023-04-19T09:34:58;16.20;99.90
21787;DHT22;11055;50.870;4.316;2023-04-19T09:37:25;16.30;99.90
21787;DHT22;11055;50.870;4.316;2023-04-19T09:39:51;16.30;99.90
21787;DHT22;11055;50.870;4.316;2023-04-19T09:42:17;16.30;99.90
21787;DHT22;11055;50.870;4.316;2023-04-19T09:44:57;16.40;99.90
21787;DHT22;11055;50.870;4.316;2023-04-19T09:47:27;16.60;99.90
21787;DHT22;11055;50.870;4.316;2023-04-19T09:50:24;16.80;99.90
21787;DHT22;11055;50.870;4.316;2023-04-19T09:52:51;16.90;99.90
21787;DHT22;11055;50.870;4.316;2023-04-19T09:55:17;16.70;99.90
21787;DHT22;11055;50.870;4.316;2023-04-19T09:57:46;16.70;99.90
21787;DHT22;11055;50.870;4.316;2023-04-19T10:00:12;17.00;99.90
21787;DHT22;11055;50.870;4.316;2023-04-19T10:02:40;17.50;99.90
21787;DHT22;11055;50.870;4.316;2023-04-19T10:05:08;18.10;99.90
21787;DHT22;11055;50.870;4.316;2023-04-19T10:07:35;18.80;99.90
21787;DHT22;11055;50.870;4.316;2023-04-19T10:10:02;19.60;99.90
21787;DHT22;11055;50.870;4.316;2023-04-19T10:12:30;20.20;99.90
21787;DHT22;11055;50.870;4.316;2023-04-19T10:14:57;20.40;99.90
21787;DHT22;11055;50.870;4.316;2023-04-19T10:17:23;20.90;99.60
21787;DHT22;11055;50.870;4.316;2023-04-19T10:19:58;21.60;96.70
21787;DHT22;11055;50.870;4.316;2023-04-19T10:22:26;22.30;95.40
21787;DHT22;11055;50.870;4.316;2023-04-19T10:25:08;23.60;93.00
21787;DHT22;11055;50.870;4.316;2023-04-19T10:27:35;24.00;89.40
21787;DHT22;11055;50.870;4.316;2023-04-19T10:30:02;23.90;88.30
21787;DHT22;11055;50.870;4.316;2023-04-19T10:32:42;24.50;84.80
21787;DHT22;11055;50.870;4.316;2023-04-19T10:35:54;25.30;82.30
21787;DHT22;11055;50.870;4.316;2023-04-19T10:38:05;24.80;78.90
21787;DHT22;11055;50.870;4.316;2023-04-19T10:43:19;23.80;78.70
21787;DHT22;11055;50.870;4.316;2023-04-19T10:45:45;25.00;77.10
21787;DHT22;11055;50.870;4.316;2023-04-19T10:51:32;25.50;71.30
21787;DHT22;11055;50.870;4.316;2023-04-19T11:01:41;24.50;69.90
21787;DHT22;11055;50.870;4.316;2023-04-19T11:09:28;22.40;75.70
21787;DHT22;11055;50.870;4.316;2023-04-19T11:12:02;21.90;77.30
21787;DHT22;11055;50.870;4.316;2023-04-19T11:14:34;21.30;79.50
21787;DHT22;11055;50.870;4.316;2023-04-19T11:17:03;20.70;81.50
21787;DHT22;11055;50.870;4.316;2023-04-19T11:19:29;20.10;84.00
21787;DHT22;11055;50.870;4.316;2023-04-19T11:21:57;21.20;82.90
21787;DHT22;11055;50.870;4.316;2023-04-19T11:24:23;23.50;77.20
21787;DHT22;11055;50.870;4.316;2023-04-19T11:26:49;24.80;72.10
21787;DHT22;11055;50.870;4.316;2023-04-19T11:29:14;23.30;72.10
21787;DHT22;11055;50.870;4.316;2023-04-19T11:31:43;23.10;73.80
21787;DHT22;11055;50.870;4.316;2023-04-19T11:34:11;22.90;72.80
21787;DHT22;11055;50.870;4.316;2023-04-19T11:36:46;22.90;74.50
21787;DHT22;11055;50.870;4.316;2023-04-19T11:39:12;24.90;67.70
21787;DHT22;11055;50.870;4.316;2023-04-19T11:41:39;24.90;66.20
21787;DHT22;11055;50.870;4.316;2023-04-19T11:44:18;24.60;65.40
21787;DHT22;11055;50.870;4.316;2023-04-19T11:47:04;25.80;63.40
21787;DHT22;11055;50.870;4.316;2023-04-19T11:49:32;27.50;59.50
21787;DHT22;11055;50.870;4.316;2023-04-19T11:52:04;29.40;54.40
21787;DHT22;11055;50.870;4.316;2023-04-19T11:54:30;31.60;49.00
21787;DHT22;11055;50.870;4.316;2023-04-19T11:57:06;33.40;43.90
21787;DHT22;11055;50.870;4.316;2023-04-19T11:59:34;33.70;41.20
21787;DHT22;11055;50.870;4.316;2023-04-19T12:02:10;34.80;37.40
21787;DHT22;11055;50.870;4.316;2023-04-19T12:04:37;32.40;39.00
21787;DHT22;11055;50.870;4.316;2023-04-19T12:07:04;31.50;39.40
21787;DHT22;11055;50.870;4.316;2023-04-19T12:09:35;30.60;41.00
21787;DHT22;11055;50.870;4.316;2023-04-19T12:12:02;33.20;37.70
21787;DHT22;11055;50.870;4.316;2023-04-19T12:14:28;35.60;35.40
21787;DHT22;11055;50.870;4.316;2023-04-19T12:19:46;37.90;32.90
21787;DHT22;11055;50.870;4.316;2023-04-19T12:22:16;36.50;30.10
21787;DHT22;11055;50.870;4.316;2023-04-19T12:24:46;38.30;29.40
21787;DHT22;11055;50.870;4.316;2023-04-19T12:27:16;39.90;27.70
21787;DHT22;11055;50.870;4.316;2023-04-19T12:29:42;38.20;27.70
21787;DHT22;11055;50.870;4.316;2023-04-19T12:32:09;39.90;27.70
21787;DHT22;11055;50.870;4.316;2023-04-19T12:34:35;40.80;26.50
21787;DHT22;11055;50.870;4.316;2023-04-19T12:37:02;44.30;24.40
21787;DHT22;11055;50.870;4.316;2023-04-19T12:39:29;44.50;23.00
21787;DHT22;11055;50.870;4.316;2023-04-19T12:41:55;43.30;22.90
21787;DHT22;11055;50.870;4.316;2023-04-19T12:44:21;45.20;21.90
21787;DHT22;11055;50.870;4.316;2023-04-19T12:46:48;47.20;21.10
21787;DHT22;11055;50.870;4.316;2023-04-19T12:49:16;46.90;19.90
21787;DHT22;11055;50.870;4.316;2023-04-19T12:51:42;45.60;20.10
21787;DHT22;11055;50.870;4.316;2023-04-19T12:54:08;41.30;20.20
21787;DHT22;11055;50.870;4.316;2023-04-19T12:56:34;38.30;22.00
21787;DHT22;11055;50.870;4.316;2023-04-19T12:59:00;39.80;22.00
21787;DHT22;11055;50.870;4.316;2023-04-19T13:01:26;42.30;21.20
21787;DHT22;11055;50.870;4.316;2023-04-19T13:03:53;42.60;20.70
21787;DHT22;11055;50.870;4.316;2023-04-19T13:06:19;41.90;20.70
21787;DHT22;11055;50.870;4.316;2023-04-19T13:08:45;41.00;19.90
21787;DHT22;11055;50.870;4.316;2023-04-19T13:11:12;40.30;20.80
21787;DHT22;11055;50.870;4.316;2023-04-19T13:13:39;39.20;20.70
21787;DHT22;11055;50.870;4.316;2023-04-19T13:16:05;38.40;21.30
21787;DHT22;11055;50.870;4.316;2023-04-19T13:18:32;38.70;20.70
21787;DHT22;11055;50.870;4.316;2023-04-19T13:20:58;38.50;20.80
21787;DHT22;11055;50.870;4.316;2023-04-19T13:23:24;37.60;20.60
21787;DHT22;11055;50.870;4.316;2023-04-19T13:25:54;38.30;21.10
21787;DHT22;11055;50.870;4.316;2023-04-19T13:28:22;36.80;20.80
21787;DHT22;11055;50.870;4.316;2023-04-19T13:30:51;37.10;20.90
21787;DHT22;11055;50.870;4.316;2023-04-19T13:33:17;36.70;21.70
21787;DHT22;11055;50.870;4.316;2023-04-19T13:35:43;35.00;21.70
21787;DHT22;11055;50.870;4.316;2023-04-19T13:38:09;33.70;22.50
21787;DHT22;11055;50.870;4.316;2023-04-19T13:40:35;32.50;22.60
21787;DHT22;11055;50.870;4.316;2023-04-19T13:43:01;30.10;23.80
21787;DHT22;11055;50.870;4.316;2023-04-19T13:45:27;26.80;25.90
21787;DHT22;11055;50.870;4.316;2023-04-19T13:47:52;24.90;27.90
21787;DHT22;11055;50.870;4.316;2023-04-19T13:50:18;23.30;29.40
21787;DHT22;11055;50.870;4.316;2023-04-19T13:52:45;22.20;30.10
21787;DHT22;11055;50.870;4.316;2023-04-19T13:55:11;21.50;30.60
21787;DHT22;11055;50.870;4.316;2023-04-19T13:57:37;20.90;31.00
21787;DHT22;11055;50.870;4.316;2023-04-19T14:00:03;20.60;32.00
21787;DHT22;11055;50.870;4.316;2023-04-19T14:02:29;20.50;32.30
21787;DHT22;11055;50.870;4.316;2023-04-19T14:04:55;20.30;32.70
21787;DHT22;11055;50.870;4.316;2023-04-19T14:07:23;20.00;32.90
21787;DHT22;11055;50.870;4.316;2023-04-19T14:09:49;19.60;33.40
21787;DHT22;11055;50.870;4.316;2023-04-19T14:12:15;19.50;33.10
21787;DHT22;11055;50.870;4.316;2023-04-19T14:14:40;19.50;33.20
21787;DHT22;11055;50.870;4.316;2023-04-19T14:17:06;19.20;33.10
21787;DHT22;11055;50.870;4.316;2023-04-19T14:19:32;19.20;33.80
21787;DHT22;11055;50.870;4.316;2023-04-19T14:21:58;19.10;33.80
21787;DHT22;11055;50.870;4.316;2023-04-19T14:24:24;19.20;33.70
21787;DHT22;11055;50.870;4.316;2023-04-19T14:26:50;19.10;34.00
21787;DHT22;11055;50.870;4.316;2023-04-19T14:29:16;18.90;34.30
21787;DHT22;11055;50.870;4.316;2023-04-19T14:31:42;18.70;34.60
21787;DHT22;11055;50.870;4.316;2023-04-19T14:34:07;18.70;35.20
21787;DHT22;11055;50.870;4.316;2023-04-19T14:36:33;18.80;34.90
21787;DHT22;11055;50.870;4.316;2023-04-19T14:38:59;18.90;34.40
21787;DHT22;11055;50.870;4.316;2023-04-19T14:41:24;18.80;33.90
21787;DHT22;11055;50.870;4.316;2023-04-19T14:43:50;18.80;33.50
21787;DHT22;11055;50.870;4.316;2023-04-19T14:46:16;18.50;33.00
21787;DHT22;11055;50.870;4.316;2023-04-19T14:48:42;18.20;33.10
21787;DHT22;11055;50.870;4.316;2023-04-19T14:51:08;18.30;33.10
21787;DHT22;11055;50.870;4.316;2023-04-19T14:53:34;18.10;31.90
21787;DHT22;11055;50.870;4.316;2023-04-19T14:56:03;18.30;32.60
21787;DHT22;11055;50.870;4.316;2023-04-19T14:58:29;18.20;33.40
21787;DHT22;11055;50.870;4.316;2023-04-19T15:00:54;18.10;34.20
21787;DHT22;11055;50.870;4.316;2023-04-19T15:03:20;18.10;34.30
21787;DHT22;11055;50.870;4.316;2023-04-19T15:05:46;18.00;34.50
21787;DHT22;11055;50.870;4.316;2023-04-19T15:08:12;18.00;34.20
21787;DHT22;11055;50.870;4.316;2023-04-19T15:10:38;18.10;34.20
21787;DHT22;11055;50.870;4.316;2023-04-19T15:13:04;18.00;33.60
21787;DHT22;11055;50.870;4.316;2023-04-19T15:15:30;17.80;34.00
21787;DHT22;11055;50.870;4.316;2023-04-19T15:17:55;17.90;33.40
21787;DHT22;11055;50.870;4.316;2023-04-19T15:20:21;17.70;33.30
21787;DHT22;11055;50.870;4.316;2023-04-19T15:22:47;17.70;33.90
21787;DHT22;11055;50.870;4.316;2023-04-19T15:25:12;17.60;33.70
21787;DHT22;11055;50.870;4.316;2023-04-19T15:27:38;17.80;34.30
21787;DHT22;11055;50.870;4.316;2023-04-19T15:30:05;17.90;34.50
21787;DHT22;11055;50.870;4.316;2023-04-19T15:32:30;17.80;33.40
21787;DHT22;11055;50.870;4.316;2023-04-19T15:34:58;17.90;33.50
21787;DHT22;11055;50.870;4.316;2023-04-19T15:37:24;17.70;32.20
21787;DHT22;11055;50.870;4.316;2023-04-19T15:39:51;17.60;32.10
21787;DHT22;11055;50.870;4.316;2023-04-19T15:42:17;17.40;31.90
21787;DHT22;11055;50.870;4.316;2023-04-19T15:44:43;17.30;32.10
21787;DHT22;11055;50.870;4.316;2023-04-19T15:47:08;17.30;31.80
21787;DHT22;11055;50.870;4.316;2023-04-19T15:49:35;17.40;31.50